Time Latitude Longitude Accuracy (66% radius in meters) Altitude (meters) Speed (km/hour) Bearing (degrees) Battery (%) GPS flag
07:41:23 56.387654 43.737259 6 87.400001525879 0 0 79 1 delete
07:41:11 56.387654 43.737259 18 87.300003051758 0 0 79 1 delete
07:41:00 56.387654 43.737259 8 87.300003051758 0 0 79 1 delete
07:40:48 56.387654 43.737260 6 87.199996948242 0 0 79 1 delete
07:40:37 56.387654 43.737261 6 87.199996948242 0 0 79 1 delete
07:40:25 56.387653 43.737262 5 87.099998474121 0 0 79 1 delete
07:40:14 56.387653 43.737263 5 87 0 0 79 1 delete
07:40:02 56.387653 43.737264 5 86.900001525879 0 0 79 1 delete
07:39:51 56.387653 43.737265 5 86.800003051758 0 0 79 1 delete
07:39:39 56.387652 43.737265 5 86.699996948242 0 0 79 1 delete
07:39:28 56.387652 43.737267 5 86.5 0 0 79 1 delete
07:39:16 56.387652 43.737267 5 86.5 0 0 79 1 delete
07:39:05 56.387652 43.737268 5 86.400001525879 0 0 79 1 delete
07:38:54 56.387652 43.737268 5 86.300003051758 0 0 79 1 delete
07:38:42 56.387651 43.737270 6 86.199996948242 0 0 79 1 delete
07:38:31 56.387651 43.737271 5 86.199996948242 0 0 79 1 delete
07:38:20 56.387651 43.737271 7 86.099998474121 0 0 79 1 delete
07:38:08 56.387651 43.737272 7 86.099998474121 0 0 79 1 delete
07:37:56 56.387651 43.737272 5 86 0 0 79 1 delete
07:37:44 56.387651 43.737272 5 86.099998474121 0 0 79 1 delete
07:37:33 56.387657 43.737278 5 87 0 0 79 1 delete
07:37:21 56.387658 43.737312 5 89.300003051758 0 0 79 1 delete
07:37:10 56.387658 43.737313 7 89.400001525879 0 0 79 1 delete
07:36:58 56.387658 43.737313 6 89.300003051758 0 0 79 1 delete
07:36:47 56.387658 43.737314 8 89.300003051758 0 0 79 1 delete
07:36:36 56.387658 43.737314 7 89.400001525879 0 0 79 1 delete
07:36:25 56.387658 43.737314 8 89.400001525879 0 0 79 1 delete
07:36:13 56.387658 43.737314 7 89.400001525879 0 0 79 1 delete
07:36:03 56.387658 43.737315 5 89.400001525879 0 0 79 1 delete
07:35:51 56.387658 43.737315 5 89.400001525879 0 0 79 1 delete
07:35:40 56.387658 43.737315 6 89.400001525879 0 0 79 1 delete
07:35:28 56.387658 43.737315 8 89.400001525879 0 0 79 1 delete
07:35:17 56.387658 43.737315 7 89.400001525879 0 0 79 1 delete
07:35:05 56.387657 43.737315 10 89.400001525879 0 0 79 1 delete
07:34:54 56.387657 43.737316 9 89.400001525879 0 0 79 1 delete
07:34:42 56.387657 43.737316 49 89.400001525879 0 0 79 1 delete
08:34:32 56.387671 43.737317 5 89.300003051758 1.3462911844254 145.39999389648 79 0 delete
08:34:20 56.387671 43.737317 5 89.300003051758 1.3462911844254 145.39999389648 79 0 delete
08:34:09 56.387671 43.737317 5 89.300003051758 1.3462911844254 145.39999389648 79 0 delete
08:33:57 56.387671 43.737317 5 89.300003051758 1.3462911844254 145.39999389648 79 0 delete
07:33:43 56.387657 43.737316 51 89.400001525879 0 0 79 1 delete
07:33:34 56.387657 43.737316 26 89.400001525879 0 0 79 1 delete
07:33:23 56.387657 43.737316 23 89.400001525879 0 0 79 1 delete
07:33:12 56.387657 43.737316 9 89.400001525879 0 0 79 1 delete
07:33:00 56.387657 43.737316 9 89.400001525879 0 0 79 1 delete
07:32:49 56.387657 43.737316 8 89.400001525879 0 0 79 1 delete
07:32:36 56.387657 43.737316 5 89.400001525879 0 0 79 1 delete
07:32:26 56.387657 43.737316 5 89.400001525879 0 0 79 1 delete
07:32:13 56.387658 43.737316 6 89.300003051758 0 0 79 1 delete
07:32:03 56.387659 43.737318 6 89.099998474121 0 0 79 1 delete